Time;durP1;ratioP1;P1;durP2;ratioP2;P2;SDS_P1;SDS_P2;PMS_P1;PMS_P2;Temp;Humidity;BMP_temperature;BMP_pressure;BME280_temperature;BME280_humidity;BME280_pressure;Samples;Min_cycle;Max_cycle;Signal;HPM_P1;HPM_P2
2020/12/21 00:00:16;;;;;;;14.93;12.60;;;;;;;;;;5033482;28;20213;-58
2020/12/21 00:02:46;;;;;;;16.98;12.30;;;;;;;;;;5032868;28;20233;-60
2020/12/21 00:05:12;;;;;;;17.63;13.50;;;;;;;;;;5033531;28;20575;-60
2020/12/21 00:07:39;;;;;;;16.90;13.35;;;;;;;;;;5032956;28;20214;-59
2020/12/21 00:10:06;;;;;;;14.45;12.10;;;;;;;;;;5033008;28;20252;-61
2020/12/21 00:12:33;;;;;;;14.65;12.40;;;;;;;;;;5033202;28;20272;-60
2020/12/21 00:15:00;;;;;;;15.57;12.82;;;;;;;;;;5033273;28;20209;-59
2020/12/21 00:17:26;;;;;;;14.85;12.55;;;;;;;;;;5033035;28;20199;-60
2020/12/21 00:19:54;;;;;;;14.23;11.95;;;;;;;;;;5033214;28;20202;-59
2020/12/21 00:22:21;;;;;;;20.08;13.43;;;;;;;;;;5033946;28;20268;-60
2020/12/21 00:24:47;;;;;;;15.82;12.77;;;;;;;;;;5037132;28;20202;-60
2020/12/21 00:27:14;;;;;;;16.70;12.55;;;;;;;;;;5037017;28;20213;-59
2020/12/21 00:29:41;;;;;;;16.67;13.48;;;;;;;;;;5037512;28;20204;-59
2020/12/21 00:32:08;;;;;;;15.18;12.80;;;;;;;;;;5037059;28;20222;-60
2020/12/21 00:34:34;;;;;;;16.08;11.65;;;;;;;;;;5036961;28;20570;-59
2020/12/21 00:37:03;;;;;;;19.55;14.25;;;;;;;;;;5036977;28;20203;-60
2020/12/21 00:39:30;;;;;;;15.43;12.23;;;;;;;;;;5036806;28;20634;-60
2020/12/21 00:41:56;;;;;;;14.93;12.68;;;;;;;;;;5036658;28;20218;-58
2020/12/21 00:44:23;;;;;;;14.95;12.95;;;;;;;;;;5036588;28;20689;-60
2020/12/21 00:46:50;;;;;;;15.00;12.80;;;;;;;;;;5036477;28;20202;-60
2020/12/21 00:49:21;;;;;;;17.30;13.65;;;;;;;;;;5036441;28;20268;-60
2020/12/21 00:51:48;;;;;;;17.55;13.50;;;;;;;;;;5036361;28;20222;-60
2020/12/21 00:54:15;;;;;;;17.05;13.27;;;;;;;;;;5036492;28;20205;-60
2020/12/21 00:56:42;;;;;;;15.63;12.48;;;;;;;;;;5036644;28;20199;-61
2020/12/21 00:59:09;;;;;;;16.55;13.10;;;;;;;;;;5037096;28;20195;-60
2020/12/21 01:01:36;;;;;;;14.70;11.75;;;;;;;;;;5036280;28;20238;-60
2020/12/21 01:04:04;;;;;;;18.05;12.13;;;;;;;;;;5036516;28;20190;-59
2020/12/21 01:06:32;;;;;;;14.15;11.60;;;;;;;;;;5036380;28;20203;-59
2020/12/21 01:08:58;;;;;;;16.25;12.50;;;;;;;;;;5036304;28;20225;-59
2020/12/21 01:11:28;;;;;;;17.42;13.98;;;;;;;;;;5035905;28;20781;-59
2020/12/21 01:13:55;;;;;;;17.08;11.85;;;;;;;;;;5036192;28;20203;-59
2020/12/21 01:16:22;;;;;;;15.82;12.02;;;;;;;;;;5036157;28;20209;-59
2020/12/21 01:18:50;;;;;;;15.10;12.90;;;;;;;;;;5036264;28;20202;-60
2020/12/21 01:21:23;;;;;;;13.88;12.35;;;;;;;;;;5036076;28;20252;-60
2020/12/21 01:23:50;;;;;;;14.55;12.32;;;;;;;;;;5036599;28;20207;-59
2020/12/21 01:26:16;;;;;;;14.02;12.48;;;;;;;;;;5036817;28;20308;-59
2020/12/21 01:28:44;;;;;;;23.77;13.27;;;;;;;;;;5035684;28;20630;-59
2020/12/21 01:31:11;;;;;;;17.88;12.82;;;;;;;;;;5035840;28;20260;-60
2020/12/21 01:33:37;;;;;;;16.90;12.68;;;;;;;;;;5035293;28;20256;-60
2020/12/21 01:36:04;;;;;;;15.75;12.07;;;;;;;;;;5035333;28;20213;-60
2020/12/21 01:38:31;;;;;;;16.48;11.40;;;;;;;;;;5035560;28;20578;-59
2020/12/21 01:40:57;;;;;;;14.13;11.85;;;;;;;;;;5035631;28;20206;-59
2020/12/21 01:43:25;;;;;;;18.15;11.20;;;;;;;;;;5036898;28;20256;-59
2020/12/21 01:45:52;;;;;;;17.45;11.40;;;;;;;;;;5037033;28;20206;-60
2020/12/21 01:48:19;;;;;;;17.00;11.73;;;;;;;;;;5036175;28;20218;-59
2020/12/21 01:50:46;;;;;;;13.18;11.55;;;;;;;;;;5035888;28;20209;-58
2020/12/21 01:53:13;;;;;;;16.75;11.05;;;;;;;;;;5035740;28;20218;-59
2020/12/21 01:55:41;;;;;;;13.73;11.63;;;;;;;;;;5036273;28;20545;-59
2020/12/21 01:58:08;;;;;;;13.48;10.23;;;;;;;;;;5035521;28;20673;-59
2020/12/21 02:00:34;;;;;;;14.75;11.73;;;;;;;;;;5035586;28;20202;-59
2020/12/21 02:03:08;;;;;;;14.35;11.80;;;;;;;;;;5035157;28;20286;-59
2020/12/21 02:05:35;;;;;;;14.18;9.73;;;;;;;;;;5035274;28;20202;-59
2020/12/21 02:08:02;;;;;;;16.05;11.15;;;;;;;;;;5035362;28;20218;-58
2020/12/21 02:10:29;;;;;;;14.18;11.60;;;;;;;;;;5034960;28;20690;-60
2020/12/21 02:12:55;;;;;;;13.70;11.30;;;;;;;;;;5034826;28;20223;-60
2020/12/21 02:15:22;;;;;;;19.38;10.70;;;;;;;;;;5035222;28;20209;-59
2020/12/21 02:17:49;;;;;;;14.98;10.48;;;;;;;;;;5035058;28;20202;-59
2020/12/21 02:20:16;;;;;;;14.23;10.32;;;;;;;;;;5035028;28;20225;-59
2020/12/21 02:22:44;;;;;;;15.30;10.57;;;;;;;;;;5034910;28;20218;-59
2020/12/21 02:25:11;;;;;;;16.25;11.43;;;;;;;;;;5034959;28;20666;-60
2020/12/21 02:27:37;;;;;;;15.00;10.15;;;;;;;;;;5034860;28;20215;-59
2020/12/21 02:30:04;;;;;;;15.20;10.70;;;;;;;;;;5035023;28;20288;-60
2020/12/21 02:32:31;;;;;;;14.82;11.18;;;;;;;;;;5034880;28;20245;-60
2020/12/21 02:34:58;;;;;;;14.38;10.18;;;;;;;;;;5034838;28;20213;-59
2020/12/21 02:37:25;;;;;;;14.30;9.82;;;;;;;;;;5034920;28;20202;-59
2020/12/21 02:39:52;;;;;;;15.60;11.43;;;;;;;;;;5034585;28;20674;-59
2020/12/21 02:42:19;;;;;;;14.98;11.00;;;;;;;;;;5034722;28;20226;-59
2020/12/21 02:44:46;;;;;;;13.68;10.70;;;;;;;;;;5034574;28;20576;-59
2020/12/21 02:47:12;;;;;;;13.88;11.43;;;;;;;;;;5033181;28;20210;-59
2020/12/21 02:49:39;;;;;;;12.35;9.82;;;;;;;;;;5034585;28;20234;-58
2020/12/21 02:52:06;;;;;;;20.60;12.07;;;;;;;;;;5034744;28;20222;-59
2020/12/21 02:54:32;;;;;;;15.13;11.23;;;;;;;;;;5034665;28;20577;-59
2020/12/21 02:57:00;;;;;;;14.10;11.13;;;;;;;;;;5034290;28;20209;-59
2020/12/21 02:59:27;;;;;;;15.95;10.27;;;;;;;;;;5034543;28;20260;-60
2020/12/21 03:01:54;;;;;;;14.65;11.20;;;;;;;;;;5058322;22;20230;-65
2020/12/21 03:04:21;;;;;;;13.60;10.38;;;;;;;;;;5034550;28;20244;-65
2020/12/21 03:06:48;;;;;;;18.88;10.25;;;;;;;;;;5034413;28;20670;-65
2020/12/21 03:09:14;;;;;;;14.70;10.57;;;;;;;;;;5033854;28;20268;-65
2020/12/21 03:11:46;;;;;;;11.45;9.60;;;;;;;;;;5034465;28;20202;-65
2020/12/21 03:14:13;;;;;;;12.32;10.10;;;;;;;;;;5033962;28;20187;-65
2020/12/21 03:16:40;;;;;;;13.18;9.95;;;;;;;;;;5034438;28;20580;-65
2020/12/21 03:19:07;;;;;;;10.25;9.25;;;;;;;;;;5033862;28;20202;-65
2020/12/21 03:21:34;;;;;;;13.32;9.85;;;;;;;;;;5033859;28;20210;-65
2020/12/21 03:24:00;;;;;;;13.38;9.90;;;;;;;;;;5034328;28;20198;-65
2020/12/21 03:26:27;;;;;;;15.75;9.30;;;;;;;;;;5034479;28;20206;-63
2020/12/21 03:28:54;;;;;;;12.23;9.68;;;;;;;;;;5034176;28;20218;-65
2020/12/21 03:31:22;;;;;;;13.98;9.70;;;;;;;;;;5034635;28;20230;-65
2020/12/21 03:33:48;;;;;;;12.95;10.45;;;;;;;;;;5035011;28;20225;-64
2020/12/21 03:36:15;;;;;;;16.48;10.00;;;;;;;;;;5035277;28;20275;-64
2020/12/21 03:38:42;;;;;;;12.13;9.98;;;;;;;;;;5036666;28;20667;-65
2020/12/21 03:41:09;;;;;;;12.95;9.27;;;;;;;;;;5035676;28;20213;-65
2020/12/21 03:43:35;;;;;;;15.00;9.98;;;;;;;;;;5034610;28;20222;-64
2020/12/21 03:46:02;;;;;;;11.98;9.73;;;;;;;;;;5034389;28;20205;-65
2020/12/21 03:48:30;;;;;;;15.85;9.80;;;;;;;;;;5034425;28;20222;-64
2020/12/21 03:50:56;;;;;;;12.15;9.30;;;;;;;;;;5034137;28;20206;-64
2020/12/21 03:53:23;;;;;;;15.55;10.35;;;;;;;;;;5033714;28;20230;-65
2020/12/21 03:55:50;;;;;;;12.70;10.07;;;;;;;;;;5033964;28;20614;-65
2020/12/21 03:58:16;;;;;;;11.65;8.90;;;;;;;;;;5033213;28;20253;-66
2020/12/21 04:00:43;;;;;;;12.30;9.70;;;;;;;;;;5033947;28;20252;-65
2020/12/21 04:03:10;;;;;;;16.10;9.77;;;;;;;;;;5033282;28;20234;-65
2020/12/21 04:07:29;;;;;;;14.70;10.05;;;;;;;;;;5112101;27;20594;-64
2020/12/21 04:09:55;;;;;;;15.32;9.90;;;;;;;;;;5111402;28;20256;-64
2020/12/21 04:12:22;;;;;;;16.55;11.25;;;;;;;;;;5113183;28;20777;-65
2020/12/21 04:14:49;;;;;;;17.80;11.13;;;;;;;;;;5120171;28;20203;-64
2020/12/21 04:17:15;;;;;;;13.88;10.18;;;;;;;;;;5114056;28;20245;-65
2020/12/21 04:19:42;;;;;;;17.55;10.63;;;;;;;;;;5113712;28;20667;-65
2020/12/21 04:22:09;;;;;;;16.95;10.85;;;;;;;;;;5111853;28;20231;-64
2020/12/21 04:24:37;;;;;;;15.48;9.75;;;;;;;;;;5112309;28;20207;-65
2020/12/21 04:27:03;;;;;;;16.05;11.60;;;;;;;;;;5111598;28;20274;-65
2020/12/21 04:29:30;;;;;;;15.98;11.05;;;;;;;;;;5111100;28;20199;-64
2020/12/21 04:31:57;;;;;;;13.52;10.02;;;;;;;;;;5111429;28;20223;-64
2020/12/21 04:34:24;;;;;;;13.52;10.77;;;;;;;;;;5111291;28;20283;-65
2020/12/21 04:36:51;;;;;;;14.80;11.65;;;;;;;;;;5111190;28;20204;-65
2020/12/21 04:39:21;;;;;;;17.20;11.40;;;;;;;;;;5111133;28;20208;-65
2020/12/21 04:41:52;;;;;;;15.05;10.05;;;;;;;;;;5110894;28;20594;-65
2020/12/21 04:44:20;;;;;;;13.27;10.32;;;;;;;;;;5110909;28;20271;-65
2020/12/21 04:46:48;;;;;;;11.77;8.43;;;;;;;;;;5110767;28;20275;-65
2020/12/21 04:49:16;;;;;;;15.00;9.88;;;;;;;;;;5110598;28;20200;-66
2020/12/21 04:51:45;;;;;;;14.57;10.63;;;;;;;;;;5110743;28;20200;-64
2020/12/21 04:54:11;;;;;;;13.45;10.35;;;;;;;;;;5110994;28;20233;-65
2020/12/21 04:56:38;;;;;;;14.23;10.95;;;;;;;;;;5110954;28;20196;-65
2020/12/21 04:59:06;;;;;;;15.27;10.23;;;;;;;;;;5110668;28;20196;-65
2020/12/21 05:01:33;;;;;;;12.98;8.90;;;;;;;;;;5110412;28;20203;-65
2020/12/21 05:03:59;;;;;;;14.43;10.20;;;;;;;;;;5110781;28;20226;-64
2020/12/21 05:06:26;;;;;;;16.50;10.27;;;;;;;;;;5110270;28;20230;-64
2020/12/21 05:09:03;;;;;;;15.32;10.02;;;;;;;;;;5110708;28;20200;-64
2020/12/21 05:11:30;;;;;;;14.63;10.73;;;;;;;;;;5111158;28;20538;-63
2020/12/21 05:14:08;;;;;;;13.57;11.13;;;;;;;;;;5110257;28;20227;-64
2020/12/21 05:16:35;;;;;;;16.70;11.63;;;;;;;;;;5109638;28;20196;-65
2020/12/21 05:19:01;;;;;;;18.88;11.63;;;;;;;;;;5095785;28;20683;-65
2020/12/21 05:21:29;;;;;;;16.25;11.60;;;;;;;;;;5096789;28;20572;-65
2020/12/21 05:23:56;;;;;;;14.90;10.90;;;;;;;;;;5096547;28;20201;-63
2020/12/21 05:26:27;;;;;;;14.75;10.80;;;;;;;;;;5096112;28;20212;-64
2020/12/21 05:28:54;;;;;;;12.02;10.18;;;;;;;;;;5096673;28;20192;-64
2020/12/21 05:31:21;;;;;;;16.45;9.50;;;;;;;;;;5096813;28;20204;-65
2020/12/21 05:33:48;;;;;;;13.88;10.73;;;;;;;;;;5095946;28;20216;-64
2020/12/21 05:36:15;;;;;;;15.70;10.45;;;;;;;;;;5096419;28;20201;-65
2020/12/21 05:38:43;;;;;;;16.50;10.48;;;;;;;;;;5096404;28;20200;-64
2020/12/21 05:41:10;;;;;;;15.05;10.10;;;;;;;;;;5096978;28;20208;-64
2020/12/21 05:43:37;;;;;;;12.68;10.20;;;;;;;;;;5097911;28;20227;-63
2020/12/21 05:46:08;;;;;;;15.57;9.70;;;;;;;;;;5097448;28;20221;-63
2020/12/21 05:48:36;;;;;;;13.63;9.50;;;;;;;;;;5097248;28;20188;-63
2020/12/21 05:51:04;;;;;;;16.85;9.35;;;;;;;;;;5096641;28;20204;-63
2020/12/21 05:53:34;;;;;;;14.38;10.70;;;;;;;;;;5096486;28;20220;-64
2020/12/21 05:56:02;;;;;;;11.48;8.70;;;;;;;;;;5096764;28;20744;-63
2020/12/21 05:58:31;;;;;;;13.23;10.38;;;;;;;;;;5097089;28;20350;-63
2020/12/21 06:00:58;;;;;;;13.23;8.88;;;;;;;;;;5098495;28;20614;-63
2020/12/21 06:03:30;;;;;;;17.70;10.55;;;;;;;;;;5098104;28;20585;-65
2020/12/21 06:06:00;;;;;;;13.68;9.90;;;;;;;;;;5098067;28;20216;-64
2020/12/21 06:08:28;;;;;;;13.60;10.05;;;;;;;;;;5097182;28;20185;-64
2020/12/21 06:10:56;;;;;;;13.52;9.35;;;;;;;;;;5097406;28;20646;-64
2020/12/21 06:13:24;;;;;;;13.95;9.85;;;;;;;;;;5096045;28;20227;-63
2020/12/21 06:15:51;;;;;;;18.33;9.85;;;;;;;;;;5096170;28;20196;-64
2020/12/21 06:18:18;;;;;;;13.05;9.38;;;;;;;;;;5096668;28;20204;-63
2020/12/21 06:20:45;;;;;;;17.15;10.70;;;;;;;;;;5096050;28;20571;-64
2020/12/21 06:23:13;;;;;;;15.48;9.57;;;;;;;;;;5095251;28;20227;-65
2020/12/21 06:25:39;;;;;;;15.00;10.38;;;;;;;;;;5095793;28;20582;-64
2020/12/21 06:28:08;;;;;;;15.45;10.43;;;;;;;;;;5096175;28;20230;-64
2020/12/21 06:30:35;;;;;;;12.75;9.98;;;;;;;;;;5096682;28;20287;-63
2020/12/21 06:33:01;;;;;;;13.00;9.25;;;;;;;;;;5096745;28;20268;-64
2020/12/21 06:35:28;;;;;;;14.32;9.60;;;;;;;;;;5095963;28;20207;-64
2020/12/21 06:37:59;;;;;;;16.20;10.40;;;;;;;;;;5095784;28;20675;-64
2020/12/21 06:40:33;;;;;;;15.52;8.73;;;;;;;;;;5095613;28;20204;-64
2020/12/21 06:43:12;;;;;;;9.57;8.50;;;;;;;;;;5095174;28;20224;-64
2020/12/21 06:45:39;;;;;;;12.65;9.57;;;;;;;;;;5095016;28;20216;-63
2020/12/21 06:48:07;;;;;;;14.27;9.85;;;;;;;;;;5096047;28;20249;-65
2020/12/21 06:50:34;;;;;;;15.73;9.75;;;;;;;;;;5095480;28;20295;-64
2020/12/21 06:53:01;;;;;;;14.93;9.93;;;;;;;;;;5095392;28;20228;-63
2020/12/21 06:55:35;;;;;;;17.00;9.20;;;;;;;;;;5095083;28;20204;-64
2020/12/21 06:58:01;;;;;;;15.88;10.00;;;;;;;;;;5095363;28;20207;-65
2020/12/21 07:00:28;;;;;;;12.88;8.75;;;;;;;;;;5095595;28;20200;-63
2020/12/21 07:02:55;;;;;;;11.10;8.93;;;;;;;;;;5094806;28;20217;-65
2020/12/21 07:05:22;;;;;;;11.00;7.65;;;;;;;;;;5094642;28;20204;-62
2020/12/21 07:07:57;;;;;;;16.02;9.20;;;;;;;;;;5095014;28;20436;-62
2020/12/21 07:10:24;;;;;;;12.32;10.18;;;;;;;;;;5094660;28;20184;-63
2020/12/21 07:12:53;;;;;;;12.85;8.60;;;;;;;;;;5094451;28;20224;-64
2020/12/21 07:15:21;;;;;;;15.25;8.82;;;;;;;;;;5094427;28;20658;-62
2020/12/21 07:17:47;;;;;;;14.73;9.75;;;;;;;;;;5094080;28;20200;-61
2020/12/21 07:20:14;;;;;;;12.57;8.10;;;;;;;;;;5093890;28;20204;-64
2020/12/21 07:22:42;;;;;;;14.45;8.25;;;;;;;;;;5093833;28;20737;-65
2020/12/21 07:25:09;;;;;;;11.02;8.65;;;;;;;;;;5093976;28;20211;-62
2020/12/21 07:27:36;;;;;;;11.25;7.80;;;;;;;;;;5094240;28;20274;-65
2020/12/21 07:30:09;;;;;;;15.48;9.00;;;;;;;;;;5094194;28;20200;-64
2020/12/21 07:32:35;;;;;;;14.90;8.15;;;;;;;;;;5095397;28;20247;-66
2020/12/21 07:35:02;;;;;;;13.75;8.35;;;;;;;;;;5094769;28;20647;-64
2020/12/21 07:37:31;;;;;;;10.50;8.30;;;;;;;;;;5093886;28;20208;-65
2020/12/21 07:39:58;;;;;;;10.30;7.65;;;;;;;;;;5094538;28;20204;-64
2020/12/21 07:42:29;;;;;;;10.80;7.22;;;;;;;;;;5094056;28;20715;-67
2020/12/21 07:44:58;;;;;;;10.85;7.70;;;;;;;;;;5095473;28;20181;-65
2020/12/21 07:47:29;;;;;;;10.88;7.97;;;;;;;;;;5095619;28;20635;-64
2020/12/21 07:49:56;;;;;;;11.25;7.60;;;;;;;;;;5095424;28;20640;-64
2020/12/21 07:52:23;;;;;;;11.32;7.68;;;;;;;;;;5096125;28;20602;-65
2020/12/21 07:54:50;;;;;;;13.38;8.65;;;;;;;;;;5095470;28;20237;-64
2020/12/21 07:57:17;;;;;;;14.98;7.90;;;;;;;;;;5094840;28;20197;-64
2020/12/21 07:59:44;;;;;;;8.57;7.68;;;;;;;;;;5093754;28;20549;-64
2020/12/21 08:02:11;;;;;;;9.60;7.85;;;;;;;;;;5093611;28;20224;-65
2020/12/21 08:04:38;;;;;;;10.52;8.05;;;;;;;;;;5093992;28;20594;-65
2020/12/21 08:07:05;;;;;;;11.93;7.68;;;;;;;;;;5093611;28;20277;-64
2020/12/21 08:09:33;;;;;;;13.95;6.63;;;;;;;;;;5093589;28;20648;-64
2020/12/21 08:12:00;;;;;;;10.82;7.63;;;;;;;;;;5093701;28;20221;-63
2020/12/21 08:14:26;;;;;;;9.68;7.40;;;;;;;;;;5093851;28;20207;-64
2020/12/21 08:16:53;;;;;;;11.10;7.00;;;;;;;;;;5093709;28;20204;-64
2020/12/21 08:19:21;;;;;;;12.18;6.78;;;;;;;;;;5094376;28;20200;-64
2020/12/21 08:21:49;;;;;;;9.55;6.30;;;;;;;;;;5094244;28;20328;-66
2020/12/21 08:24:16;;;;;;;12.65;8.63;;;;;;;;;;5093903;28;20397;-65
2020/12/21 08:26:45;;;;;;;14.93;8.40;;;;;;;;;;5094257;28;20212;-63
2020/12/21 08:29:19;;;;;;;9.43;7.55;;;;;;;;;;5096752;28;20204;-64
2020/12/21 08:31:46;;;;;;;12.15;7.22;;;;;;;;;;5098038;28;20254;-64
2020/12/21 08:34:15;;;;;;;12.73;7.70;;;;;;;;;;5096695;28;20215;-66
2020/12/21 08:36:42;;;;;;;7.57;5.90;;;;;;;;;;5095587;28;20254;-64
2020/12/21 08:39:11;;;;;;;8.95;6.65;;;;;;;;;;5093578;28;20213;-65
2020/12/21 08:41:39;;;;;;;9.18;7.60;;;;;;;;;;5093800;28;20204;-63
2020/12/21 08:44:07;;;;;;;10.00;6.75;;;;;;;;;;5093977;28;20230;-64
2020/12/21 08:46:34;;;;;;;9.68;6.72;;;;;;;;;;5094526;28;20578;-65
2020/12/21 08:49:01;;;;;;;10.98;6.70;;;;;;;;;;5093900;28;20201;-63
2020/12/21 08:51:27;;;;;;;14.32;7.82;;;;;;;;;;5093174;28;20679;-62
2020/12/21 08:53:57;;;;;;;12.20;7.35;;;;;;;;;;5098390;28;20220;-63
2020/12/21 08:56:25;;;;;;;12.48;8.23;;;;;;;;;;5098847;28;20212;-64
2020/12/21 08:58:52;;;;;;;8.73;7.28;;;;;;;;;;5098517;28;20205;-65
2020/12/21 09:01:19;;;;;;;13.95;6.43;;;;;;;;;;5098878;28;20228;-64
2020/12/21 09:03:46;;;;;;;9.20;6.55;;;;;;;;;;5098871;28;20744;-62
2020/12/21 09:06:17;;;;;;;8.55;6.80;;;;;;;;;;5100719;28;20230;-63
2020/12/21 09:08:44;;;;;;;9.82;5.90;;;;;;;;;;5101355;28;20617;-65
2020/12/21 09:11:11;;;;;;;8.95;6.18;;;;;;;;;;5101880;28;20287;-66
2020/12/21 09:13:41;;;;;;;7.60;6.13;;;;;;;;;;5102305;28;20246;-63
2020/12/21 09:16:08;;;;;;;6.72;5.40;;;;;;;;;;5102690;28;20222;-63
2020/12/21 09:18:35;;;;;;;12.18;5.18;;;;;;;;;;5102766;28;20267;-64
2020/12/21 09:21:02;;;;;;;8.63;5.78;;;;;;;;;;5102763;28;20207;-63
2020/12/21 09:23:29;;;;;;;10.70;6.30;;;;;;;;;;5103260;28;20618;-64
2020/12/21 09:25:55;;;;;;;11.38;5.20;;;;;;;;;;5101997;28;20217;-64
2020/12/21 09:28:22;;;;;;;6.75;5.50;;;;;;;;;;5103925;28;20200;-64
2020/12/21 09:30:50;;;;;;;7.88;5.00;;;;;;;;;;5098880;28;20200;-65
2020/12/21 09:33:16;;;;;;;5.78;5.20;;;;;;;;;;5096663;28;20593;-64
2020/12/21 09:35:43;;;;;;;6.88;5.72;;;;;;;;;;5095567;28;20576;-63
2020/12/21 09:38:10;;;;;;;9.55;5.40;;;;;;;;;;5095926;28;20204;-64
2020/12/21 09:40:37;;;;;;;10.45;6.38;;;;;;;;;;5095780;28;20200;-65
2020/12/21 09:43:03;;;;;;;8.75;5.63;;;;;;;;;;5095974;28;20277;-66
2020/12/21 09:45:30;;;;;;;12.23;6.45;;;;;;;;;;5096516;28;20203;-65
2020/12/21 09:47:58;;;;;;;7.93;5.22;;;;;;;;;;5095821;28;20224;-64
2020/12/21 09:50:25;;;;;;;7.53;5.05;;;;;;;;;;5095651;28;20200;-65
2020/12/21 09:52:51;;;;;;;9.23;6.10;;;;;;;;;;5095641;28;20302;-65
2020/12/21 09:55:18;;;;;;;7.05;4.85;;;;;;;;;;5096011;28;20207;-64
2020/12/21 09:57:45;;;;;;;9.27;5.82;;;;;;;;;;5097221;28;20200;-64
2020/12/21 10:00:11;;;;;;;8.10;4.25;;;;;;;;;;5097085;28;20615;-66
2020/12/21 10:02:38;;;;;;;5.40;4.50;;;;;;;;;;5095953;28;20220;-66
2020/12/21 10:05:06;;;;;;;8.40;4.50;;;;;;;;;;5095918;28;20200;-65
2020/12/21 10:07:33;;;;;;;8.35;5.10;;;;;;;;;;5095371;28;20200;-65
2020/12/21 10:10:00;;;;;;;15.80;5.00;;;;;;;;;;5095727;28;20200;-64
2020/12/21 10:12:26;;;;;;;7.50;4.18;;;;;;;;;;5095352;28;20216;-66
2020/12/21 10:14:53;;;;;;;10.95;4.68;;;;;;;;;;5095742;28;20197;-65
2020/12/21 10:17:20;;;;;;;8.07;4.30;;;;;;;;;;5095414;28;20571;-64
2020/12/21 10:19:47;;;;;;;6.82;3.70;;;;;;;;;;5095263;28;20664;-66
2020/12/21 10:22:14;;;;;;;8.07;4.40;;;;;;;;;;5095188;28;20228;-66
2020/12/21 10:24:41;;;;;;;8.50;4.40;;;;;;;;;;5094541;28;20436;-67
2020/12/21 10:27:08;;;;;;;7.40;4.57;;;;;;;;;;5095269;28;20212;-65
2020/12/21 10:29:35;;;;;;;6.13;3.88;;;;;;;;;;5094676;28;20257;-67
2020/12/21 10:32:01;;;;;;;4.72;3.97;;;;;;;;;;5094720;28;20231;-64
2020/12/21 10:34:28;;;;;;;9.20;3.72;;;;;;;;;;5094812;28;20664;-66
2020/12/21 10:36:55;;;;;;;5.78;3.53;;;;;;;;;;5094523;28;20664;-66
2020/12/21 10:39:22;;;;;;;6.40;3.55;;;;;;;;;;5094481;28;20204;-66
2020/12/21 10:41:49;;;;;;;5.43;3.05;;;;;;;;;;5094709;28;20204;-67
2020/12/21 10:44:16;;;;;;;5.47;3.28;;;;;;;;;;5094421;28;20205;-64
2020/12/21 10:46:43;;;;;;;4.90;3.30;;;;;;;;;;5094794;28;20581;-66
2020/12/21 10:49:10;;;;;;;7.40;4.30;;;;;;;;;;5102617;28;20208;-66
2020/12/21 10:51:37;;;;;;;6.30;3.70;;;;;;;;;;5099316;28;20204;-67
2020/12/21 10:54:04;;;;;;;5.93;4.13;;;;;;;;;;5096566;28;20203;-66
2020/12/21 10:56:32;;;;;;;7.68;4.10;;;;;;;;;;5097424;28;20203;-65
2020/12/21 10:58:59;;;;;;;7.07;3.42;;;;;;;;;;5097438;28;20234;-67
2020/12/21 11:01:25;;;;;;;6.57;4.00;;;;;;;;;;5099900;28;20291;-65
2020/12/21 11:03:52;;;;;;;5.80;4.00;;;;;;;;;;5098255;28;20224;-67
2020/12/21 11:06:23;;;;;;;5.43;4.15;;;;;;;;;;5097638;28;20604;-65
2020/12/21 11:08:50;;;;;;;7.05;3.75;;;;;;;;;;5098355;28;20622;-70
2020/12/21 11:11:24;;;;;;;6.60;3.30;;;;;;;;;;5097821;28;20566;-68
2020/12/21 11:13:52;;;;;;;4.72;3.40;;;;;;;;;;5094590;28;20616;-66
2020/12/21 11:16:18;;;;;;;5.60;3.80;;;;;;;;;;5094537;28;20196;-67
2020/12/21 11:18:45;;;;;;;3.83;3.53;;;;;;;;;;5094627;28;20287;-66
2020/12/21 11:21:13;;;;;;;6.63;3.72;;;;;;;;;;5094287;28;20645;-65
2020/12/21 11:23:40;;;;;;;6.68;4.53;;;;;;;;;;5094937;28;20216;-65
2020/12/21 11:26:07;;;;;;;4.40;4.00;;;;;;;;;;5094203;28;20217;-66
2020/12/21 11:28:33;;;;;;;9.38;4.50;;;;;;;;;;5093297;28;20503;-67
2020/12/21 11:31:01;;;;;;;6.18;3.45;;;;;;;;;;5093635;28;20245;-66
2020/12/21 11:33:28;;;;;;;6.78;3.75;;;;;;;;;;5094162;28;20285;-66
2020/12/21 11:35:54;;;;;;;7.50;4.10;;;;;;;;;;5094082;28;20226;-67
2020/12/21 11:38:21;;;;;;;6.35;3.83;;;;;;;;;;5093481;28;20204;-67
2020/12/21 11:40:48;;;;;;;5.50;3.97;;;;;;;;;;5094246;28;20200;-67
2020/12/21 11:43:15;;;;;;;5.60;3.90;;;;;;;;;;5093767;28;20216;-68
2020/12/21 11:45:42;;;;;;;10.15;4.20;;;;;;;;;;5094059;28;20201;-65
2020/12/21 11:48:10;;;;;;;11.50;4.10;;;;;;;;;;5093760;28;20703;-66
2020/12/21 11:50:36;;;;;;;9.18;4.15;;;;;;;;;;5095958;28;20223;-67
2020/12/21 11:53:03;;;;;;;7.07;3.92;;;;;;;;;;5097343;28;20227;-67
2020/12/21 11:55:30;;;;;;;7.63;3.83;;;;;;;;;;5094014;28;20499;-67
2020/12/21 11:57:57;;;;;;;5.95;3.95;;;;;;;;;;5093500;28;20269;-67
2020/12/21 12:00:23;;;;;;;7.13;3.70;;;;;;;;;;5092627;28;20432;-66
2020/12/21 12:02:50;;;;;;;6.10;4.20;;;;;;;;;;5093632;28;20224;-67
2020/12/21 12:05:18;;;;;;;9.57;4.15;;;;;;;;;;5094015;28;20200;-69
2020/12/21 12:07:45;;;;;;;12.63;4.00;;;;;;;;;;5093820;28;20204;-67
2020/12/21 12:10:11;;;;;;;6.65;3.80;;;;;;;;;;5093636;28;20201;-67
2020/12/21 12:12:38;;;;;;;4.18;3.00;;;;;;;;;;5092945;28;20220;-67
2020/12/21 12:15:05;;;;;;;6.82;3.72;;;;;;;;;;5093051;28;20208;-66
2020/12/21 12:17:32;;;;;;;8.38;3.60;;;;;;;;;;5093569;28;20363;-67
2020/12/21 12:19:58;;;;;;;6.40;4.25;;;;;;;;;;5094033;28;20200;-65
2020/12/21 12:22:26;;;;;;;7.53;4.35;;;;;;;;;;5093307;28;20242;-67
2020/12/21 12:24:53;;;;;;;7.68;3.60;;;;;;;;;;5093881;28;20199;-66
2020/12/21 12:27:19;;;;;;;7.68;4.63;;;;;;;;;;5094961;28;20695;-66
2020/12/21 12:29:46;;;;;;;7.78;5.05;;;;;;;;;;5097631;28;20215;-65
2020/12/21 12:32:13;;;;;;;9.18;3.95;;;;;;;;;;5097172;28;20303;-66
2020/12/21 12:34:41;;;;;;;5.18;3.55;;;;;;;;;;5097187;28;20204;-66
2020/12/21 12:37:07;;;;;;;6.10;3.05;;;;;;;;;;5097392;28;20200;-65
2020/12/21 12:39:35;;;;;;;4.90;3.97;;;;;;;;;;5098744;28;20208;-67
2020/12/21 12:42:02;;;;;;;9.35;3.80;;;;;;;;;;5099837;28;20297;-65
2020/12/21 12:44:28;;;;;;;5.55;3.95;;;;;;;;;;5097376;28;20231;-66
2020/12/21 12:46:55;;;;;;;7.00;3.88;;;;;;;;;;5097102;28;20315;-67
2020/12/21 12:49:22;;;;;;;7.90;3.10;;;;;;;;;;5096826;28;20683;-66
2020/12/21 12:51:54;;;;;;;6.85;3.88;;;;;;;;;;5097199;28;20199;-67
2020/12/21 12:54:21;;;;;;;6.45;3.60;;;;;;;;;;5097324;28;20280;-66
2020/12/21 12:56:48;;;;;;;6.53;4.25;;;;;;;;;;5097133;28;20687;-66
2020/12/21 12:59:15;;;;;;;9.82;4.53;;;;;;;;;;5096860;28;20617;-66
2020/12/21 13:01:42;;;;;;;5.15;3.95;;;;;;;;;;5097277;28;20667;-68
2020/12/21 13:04:09;;;;;;;6.72;4.32;;;;;;;;;;5096713;28;20270;-66
2020/12/21 13:06:36;;;;;;;6.40;3.58;;;;;;;;;;5096438;28;20250;-68
2020/12/21 13:09:03;;;;;;;7.20;3.45;;;;;;;;;;5096753;28;20200;-69
2020/12/21 13:11:29;;;;;;;9.45;3.92;;;;;;;;;;5096990;28;20287;-68
2020/12/21 13:13:57;;;;;;;6.25;3.50;;;;;;;;;;5096665;28;20235;-67
2020/12/21 13:16:24;;;;;;;7.35;3.65;;;;;;;;;;5096529;28;20254;-66
2020/12/21 13:18:51;;;;;;;9.15;3.60;;;;;;;;;;5096050;28;20201;-67
2020/12/21 13:21:21;;;;;;;6.25;3.45;;;;;;;;;;5098954;28;20200;-66
2020/12/21 13:23:48;;;;;;;4.13;3.67;;;;;;;;;;5099293;28;20220;-67
2020/12/21 13:26:15;;;;;;;5.28;3.70;;;;;;;;;;5100358;28;20648;-67
2020/12/21 13:28:42;;;;;;;9.40;4.15;;;;;;;;;;5100493;28;20253;-67
2020/12/21 13:31:10;;;;;;;7.57;3.70;;;;;;;;;;5098644;28;20204;-66
2020/12/21 13:33:37;;;;;;;6.80;4.20;;;;;;;;;;5098779;28;20220;-66
2020/12/21 13:36:04;;;;;;;5.10;3.70;;;;;;;;;;5098881;28;20616;-67
2020/12/21 13:38:35;;;;;;;6.63;4.47;;;;;;;;;;5097827;28;20207;-67
2020/12/21 13:41:01;;;;;;;11.25;4.15;;;;;;;;;;5098958;28;20196;-68
2020/12/21 13:43:28;;;;;;;11.90;4.30;;;;;;;;;;5098786;28;20220;-65
2020/12/21 13:45:55;;;;;;;7.10;3.55;;;;;;;;;;5098382;28;20208;-68
2020/12/21 13:48:22;;;;;;;6.38;4.50;;;;;;;;;;5098540;28;20193;-68
2020/12/21 13:50:49;;;;;;;6.28;3.78;;;;;;;;;;5097734;28;20615;-67
2020/12/21 13:53:16;;;;;;;5.03;3.60;;;;;;;;;;5098126;28;20315;-65
2020/12/21 13:55:43;;;;;;;8.65;3.42;;;;;;;;;;5096355;28;20284;-66
2020/12/21 13:58:09;;;;;;;7.35;4.22;;;;;;;;;;5094439;28;20918;-69
2020/12/21 14:00:36;;;;;;;6.40;4.38;;;;;;;;;;5096012;28;20204;-67
2020/12/21 14:03:03;;;;;;;7.00;3.95;;;;;;;;;;5096202;28;20220;-67
2020/12/21 14:05:31;;;;;;;7.72;4.03;;;;;;;;;;5096106;28;20562;-67
2020/12/21 14:07:57;;;;;;;6.07;4.50;;;;;;;;;;5097631;28;20262;-67
2020/12/21 14:10:24;;;;;;;6.07;4.32;;;;;;;;;;5100981;28;20610;-67
2020/12/21 14:12:51;;;;;;;6.88;4.13;;;;;;;;;;5097107;28;20589;-66
2020/12/21 14:15:18;;;;;;;7.75;4.75;;;;;;;;;;5095753;28;20208;-66
2020/12/21 14:17:44;;;;;;;7.35;4.68;;;;;;;;;;5094967;28;20197;-66
2020/12/21 14:20:11;;;;;;;8.77;4.22;;;;;;;;;;5095565;28;20250;-66
2020/12/21 14:22:39;;;;;;;8.10;4.95;;;;;;;;;;5096136;28;20269;-65
2020/12/21 14:25:05;;;;;;;8.48;4.00;;;;;;;;;;5095704;28;20245;-65
2020/12/21 14:27:32;;;;;;;5.78;4.10;;;;;;;;;;5095529;28;20281;-64
2020/12/21 14:29:59;;;;;;;7.53;4.25;;;;;;;;;;5095053;28;20672;-63
2020/12/21 14:32:25;;;;;;;4.93;4.00;;;;;;;;;;5095755;28;20224;-65